createdAt,value
2017-06-14T00:01:23.891Z,21.03
2017-06-14T00:03:47.968Z,20.98
2017-06-14T00:05:32.455Z,20.89
2017-06-14T00:07:39.708Z,20.75
2017-06-14T00:10:03.789Z,20.75
2017-06-14T00:12:27.872Z,20.66
2017-06-14T00:14:51.954Z,21.01
2017-06-14T00:17:16.037Z,21.01
2017-06-14T00:19:40.121Z,20.88
2017-06-14T00:21:41.477Z,20.64
2017-06-14T00:23:57.152Z,20.5
2017-06-14T00:26:12.733Z,20.74
2017-06-14T00:28:36.819Z,20
2017-06-14T00:31:00.900Z,20.17
2017-06-14T00:33:24.983Z,20.48
2017-06-14T00:35:49.065Z,20.27
2017-06-14T00:38:04.748Z,20.32
2017-06-14T00:40:28.731Z,20.5
2017-06-14T00:42:52.814Z,20.04
2017-06-14T00:45:08.393Z,20.4
2017-06-14T00:47:32.478Z,20.64
2017-06-14T00:49:56.558Z,20.32
2017-06-14T00:52:20.537Z,20.56
2017-06-14T00:54:44.615Z,20.17
2017-06-14T00:57:08.704Z,19.9
2017-06-14T00:59:32.779Z,19.94
2017-06-14T01:01:48.364Z,19.64
2017-06-14T01:04:03.952Z,19.41
2017-06-14T01:06:05.303Z,19.35
2017-06-14T01:08:29.377Z,19.39
2017-06-14T01:10:44.957Z,19.64
2017-06-14T01:13:08.940Z,19.49
2017-06-14T01:15:32.917Z,19.17
2017-06-14T01:17:56.900Z,19.64
2017-06-14T01:20:20.874Z,19.85
2017-06-14T01:22:36.461Z,19.32
2017-06-14T01:25:00.438Z,19.32
2017-06-14T01:27:24.417Z,19.53
2017-06-14T01:29:48.398Z,19.55
2017-06-14T01:32:03.981Z,19.53
2017-06-14T01:34:27.962Z,19.74
2017-06-14T01:36:51.940Z,19.24
2017-06-14T01:39:07.521Z,19.71
2017-06-14T01:41:31.501Z,19.63
2017-06-14T01:43:33.346Z,19.74
2017-06-14T01:45:57.340Z,19.52
2017-06-14T01:48:21.323Z,19.59
2017-06-14T01:50:45.301Z,19.72
2017-06-14T01:53:00.885Z,19.9
2017-06-14T01:55:24.864Z,19.29
2017-06-14T01:57:40.347Z,19.49
2017-06-14T02:00:04.324Z,18.82
2017-06-14T02:02:19.903Z,19
2017-06-14T02:04:43.891Z,18.92
2017-06-14T02:07:07.865Z,18.85
2017-06-14T02:09:09.208Z,19
2017-06-14T02:11:24.796Z,19.17
2017-06-14T02:13:40.382Z,19.11
2017-06-14T02:16:04.357Z,19.07
2017-06-14T02:18:19.838Z,18.86
2017-06-14T02:20:35.417Z,18.92
2017-06-14T02:22:59.298Z,18.79
2017-06-14T02:25:23.275Z,18.88
2017-06-14T02:27:47.252Z,18.78
2017-06-14T02:30:11.233Z,18.73
2017-06-14T02:32:35.217Z,18.68
2017-06-14T02:34:50.693Z,18.52
2017-06-14T02:37:14.676Z,18.73
2017-06-14T02:39:38.654Z,18.96
2017-06-14T02:42:02.635Z,18.92
2017-06-14T02:44:04.460Z,19.07
2017-06-14T02:46:28.473Z,18.98
2017-06-14T02:48:52.453Z,18.86
2017-06-14T02:51:16.432Z,18.63
2017-06-14T02:53:40.411Z,18.02
2017-06-14T02:56:04.392Z,17.95
2017-06-14T02:58:28.269Z,17.63
2017-06-14T03:00:52.147Z,18.09
2017-06-14T03:03:16.024Z,18.16
2017-06-14T03:05:17.332Z,18.46
2017-06-14T03:07:41.245Z,18.12
2017-06-14T03:10:05.128Z,17.69
2017-06-14T03:12:29.006Z,17.9
2017-06-14T03:14:52.880Z,18.41
2017-06-14T03:17:16.756Z,18.36
2017-06-14T03:19:40.655Z,18.09
2017-06-14T03:21:56.115Z,18.45
2017-06-14T03:24:11.593Z,18.49
2017-06-14T03:26:35.472Z,18.55
2017-06-14T03:28:59.351Z,18.55
2017-06-14T03:31:23.226Z,18.57
2017-06-14T03:33:30.309Z,18.34
2017-06-14T03:35:54.189Z,18.6
2017-06-14T03:38:18.060Z,18.46
2017-06-14T03:40:25.147Z,18.74
2017-06-14T03:42:49.021Z,18.24
2017-06-14T03:45:04.502Z,18.34
2017-06-14T03:47:28.383Z,18.83
2017-06-14T03:49:43.860Z,19.29
2017-06-14T03:51:59.343Z,19.74
2017-06-14T03:54:00.676Z,19.9
2017-06-14T03:56:24.665Z,19.72
2017-06-14T03:58:48.645Z,19.74
2017-06-14T04:01:12.626Z,19.75
2017-06-14T04:03:36.609Z,19.49
2017-06-14T04:06:00.588Z,19.63
2017-06-14T04:08:24.566Z,20.02
2017-06-14T04:10:48.544Z,19.97
2017-06-14T04:13:12.632Z,19.87
2017-06-14T04:15:28.212Z,19.9
2017-06-14T04:17:52.294Z,19.84
2017-06-14T04:20:16.372Z,21.4
2017-06-14T04:22:26.741Z,23.42
2017-06-14T04:24:50.920Z,23.23
2017-06-14T04:27:06.707Z,24.68
2017-06-14T04:29:30.996Z,25.46
2017-06-14T04:31:55.380Z,26.71
2017-06-14T04:34:19.874Z,28.75
2017-06-14T04:36:44.467Z,29.1
2017-06-14T04:39:09.166Z,28.38
2017-06-14T04:41:33.961Z,29.15
2017-06-14T04:43:41.863Z,29.32
2017-06-14T04:45:58.267Z,31.97
2017-06-14T04:48:14.770Z,30.85
2017-06-14T04:50:39.773Z,30.43
2017-06-14T04:52:56.380Z,29.18
2017-06-14T04:55:12.987Z,31.51
2017-06-14T04:57:38.093Z,30.43
2017-06-14T04:59:46.214Z,29.27
2017-06-14T05:02:02.808Z,28.93
2017-06-14T05:04:27.913Z,31
2017-06-14T05:06:53.015Z,31.22
2017-06-14T05:09:18.124Z,31.64
2017-06-14T05:11:43.230Z,32.16
2017-06-14T05:14:08.438Z,31.48
2017-06-14T05:16:25.145Z,30.98
2017-06-14T05:18:50.356Z,30.96
2017-06-14T05:21:07.055Z,30.01
2017-06-14T05:23:32.309Z,33.44
2017-06-14T05:25:08.171Z,34.13
2017-06-14T05:27:33.548Z,32.09
2017-06-14T05:29:58.958Z,31.73
2017-06-14T05:32:15.865Z,31.41
2017-06-14T05:34:41.383Z,33.35
2017-06-14T05:37:06.994Z,36.43
2017-06-14T05:39:32.717Z,35.53
2017-06-14T05:41:49.937Z,37.95
2017-06-14T05:44:15.766Z,40.76
2017-06-14T05:46:41.686Z,36.14
2017-06-14T05:48:59.150Z,36.65
2017-06-14T05:51:25.138Z,36.69
2017-06-14T05:53:51.175Z,36.8
2017-06-14T05:56:17.206Z,38.2
2017-06-14T05:58:43.229Z,36.87
2017-06-14T06:01:09.360Z,38.35
2017-06-14T06:03:35.510Z,38.44
2017-06-14T06:06:01.620Z,36.89
2017-06-14T06:08:27.739Z,40.14
2017-06-14T06:10:53.870Z,39.88
2017-06-14T06:13:20.003Z,37.38
2017-06-14T06:15:46.028Z,36.24
2017-06-14T06:18:11.954Z,38.09
2017-06-14T06:20:37.884Z,36.84
2017-06-14T06:23:03.792Z,35.01
2017-06-14T06:25:14.298Z,35.5
2017-06-14T06:27:24.756Z,33.63
2017-06-14T06:29:50.553Z,34.35
2017-06-14T06:32:16.371Z,35.41
2017-06-14T06:34:33.596Z,32.81
2017-06-14T06:36:59.414Z,34.07
2017-06-14T06:39:16.740Z,33.91
2017-06-14T06:41:42.665Z,32.37
2017-06-14T06:44:08.593Z,32.78
2017-06-14T06:46:34.516Z,32.26
2017-06-14T06:48:51.871Z,33.12
2017-06-14T06:51:09.163Z,33.01
2017-06-14T06:53:26.384Z,34
2017-06-14T06:55:35.004Z,33.04
2017-06-14T06:58:00.725Z,34.29
2017-06-14T07:00:17.853Z,34.65
2017-06-14T07:02:43.565Z,33.03
2017-06-14T07:05:09.282Z,33.45
2017-06-14T07:07:34.898Z,34.33
2017-06-14T07:09:52.017Z,32.82
2017-06-14T07:12:10.064Z,35.32
2017-06-14T07:14:35.573Z,32.17
2017-06-14T07:17:00.989Z,33.36
2017-06-14T07:19:26.504Z,33.32
2017-06-14T07:21:51.938Z,33.29
2017-06-14T07:24:08.827Z,32.85
2017-06-14T07:26:25.746Z,34.65
2017-06-14T07:28:51.159Z,36.17
2017-06-14T07:31:16.569Z,33.29
2017-06-14T07:33:33.587Z,32.82
2017-06-14T07:35:59.104Z,36.11
2017-06-14T07:38:24.642Z,33.85
2017-06-14T07:40:50.132Z,35.13
2017-06-14T07:43:16.675Z,34.66
2017-06-14T07:45:42.291Z,34.4
2017-06-14T07:48:07.807Z,33.22
2017-06-14T07:50:33.351Z,34.46
2017-06-14T07:52:58.854Z,35.05
2017-06-14T07:55:24.470Z,34.81
2017-06-14T07:57:26.690Z,34.16
2017-06-14T07:59:52.449Z,34.55
2017-06-14T08:01:54.749Z,35.32
2017-06-14T08:04:20.563Z,36.62
2017-06-14T08:06:22.837Z,33.85
2017-06-14T08:08:48.635Z,34.21
2017-06-14T08:11:14.347Z,33.29
2017-06-14T08:13:16.684Z,34.16
2017-06-14T08:15:43.453Z,33.09
2017-06-14T08:18:00.681Z,33.97
2017-06-14T08:20:26.425Z,33.66
2017-06-14T08:22:53.142Z,34.04
2017-06-14T08:25:18.877Z,34.35
2017-06-14T08:27:45.621Z,35.57
2017-06-14T08:30:12.370Z,35.1
2017-06-14T08:32:40.133Z,35.64
2017-06-14T08:35:05.862Z,35.42
2017-06-14T08:37:31.506Z,36.54
2017-06-14T08:39:57.316Z,38.63
2017-06-14T08:42:24.062Z,35.69
2017-06-14T08:44:49.818Z,35.63
2017-06-14T08:47:15.477Z,35.01
2017-06-14T08:49:41.194Z,36.17
2017-06-14T08:52:06.920Z,37.18
2017-06-14T08:54:32.634Z,36.94
2017-06-14T08:56:58.358Z,35.04
2017-06-14T08:59:07.085Z,35.35
2017-06-14T09:01:32.803Z,35.72
2017-06-14T09:03:58.523Z,36.84
2017-06-14T09:06:24.244Z,37.18
2017-06-14T09:08:41.471Z,35.49
2017-06-14T09:11:07.188Z,35.59
2017-06-14T09:13:32.914Z,35.13
2017-06-14T09:15:58.627Z,35.39
2017-06-14T09:18:24.347Z,32.39
2017-06-14T09:20:49.969Z,32.75
2017-06-14T09:23:15.585Z,34.13
2017-06-14T09:25:32.599Z,32.31
2017-06-14T09:27:58.214Z,34.93
2017-06-14T09:30:23.835Z,35.01
2017-06-14T09:32:49.350Z,33.51
2017-06-14T09:35:14.865Z,33.7
2017-06-14T09:37:40.379Z,34.5
2017-06-14T09:39:57.400Z,35.2
2017-06-14T09:42:22.912Z,34.71
2017-06-14T09:44:48.428Z,32.45
2017-06-14T09:47:05.319Z,33.91
2017-06-14T09:49:22.259Z,35.71
2017-06-14T09:51:39.172Z,34.14
2017-06-14T09:54:04.685Z,34.83
2017-06-14T09:56:21.597Z,33.91
2017-06-14T09:58:23.312Z,34.58
2017-06-14T10:00:48.770Z,34.14
2017-06-14T10:03:14.287Z,34.13
2017-06-14T10:05:39.801Z,32.08
2017-06-14T10:08:05.219Z,31.48
2017-06-14T10:10:30.628Z,32.19
2017-06-14T10:12:55.937Z,32.05
2017-06-14T10:15:12.755Z,32.2
2017-06-14T10:17:23.538Z,31.37
2017-06-14T10:19:48.933Z,30.52
2017-06-14T10:22:14.246Z,32.11
2017-06-14T10:24:30.953Z,32.08
2017-06-14T10:26:47.669Z,32.09
2017-06-14T10:29:04.323Z,31.74
2017-06-14T10:31:29.478Z,30.56
2017-06-14T10:33:54.686Z,30.35
2017-06-14T10:36:19.892Z,30.86
2017-06-14T10:38:45.009Z,30.83
2017-06-14T10:41:01.718Z,30.93
2017-06-14T10:43:18.414Z,29.69
2017-06-14T10:45:43.532Z,30.2
2017-06-14T10:48:08.631Z,30.29
2017-06-14T10:50:33.668Z,30.23
2017-06-14T10:52:58.740Z,30.26
2017-06-14T10:55:23.745Z,29.74
2017-06-14T10:57:00.134Z,30.4
2017-06-14T10:59:08.217Z,30.1
2017-06-14T11:01:33.215Z,29.68
2017-06-14T11:03:58.221Z,30.43
2017-06-14T11:06:23.223Z,31.05
2017-06-14T11:08:48.228Z,29.73
2017-06-14T11:11:13.232Z,29.62
2017-06-14T11:13:38.236Z,29.43
2017-06-14T11:16:03.146Z,30.11
2017-06-14T11:18:28.140Z,30.54
2017-06-14T11:20:53.143Z,29.76
2017-06-14T11:23:18.149Z,29.83
2017-06-14T11:25:43.044Z,29.27
2017-06-14T11:27:51.053Z,28.92
2017-06-14T11:30:15.951Z,29.32
2017-06-14T11:32:40.853Z,30.02
2017-06-14T11:35:05.756Z,29.62
2017-06-14T11:37:30.765Z,29.81
2017-06-14T11:39:55.660Z,30.16
2017-06-14T11:42:20.567Z,29.83
2017-06-14T11:44:22.137Z,30.4
2017-06-14T11:46:47.121Z,30.32
2017-06-14T11:49:12.121Z,30.54
2017-06-14T11:51:28.628Z,29.73
2017-06-14T11:53:53.527Z,29.83
2017-06-14T11:56:18.432Z,29.5
2017-06-14T11:58:43.329Z,29.96
2017-06-14T12:01:08.232Z,30.44
2017-06-14T12:03:33.133Z,30.65
2017-06-14T12:05:49.641Z,29.89
2017-06-14T12:08:14.532Z,29.9
2017-06-14T12:10:39.435Z,30.11
2017-06-14T12:13:04.335Z,30.38
2017-06-14T12:15:29.240Z,30.26
2017-06-14T12:17:54.141Z,29.62
2017-06-14T12:20:10.544Z,29.53
2017-06-14T12:22:12.647Z,29.89
2017-06-14T12:24:37.610Z,29.47
2017-06-14T12:27:02.617Z,30.2
2017-06-14T12:29:27.621Z,30.61
2017-06-14T12:31:52.519Z,30.29
2017-06-14T12:34:17.423Z,30.26
2017-06-14T12:36:42.329Z,30.61
2017-06-14T12:38:58.727Z,30.71
2017-06-14T12:41:06.627Z,30.71
2017-06-14T12:43:31.529Z,30.33
2017-06-14T12:45:47.928Z,30.8
2017-06-14T12:48:05.367Z,30.85
2017-06-14T12:50:30.258Z,30.73
2017-06-14T12:52:55.159Z,30.24
2017-06-14T12:55:20.162Z,30.77
2017-06-14T12:57:45.167Z,29.79
2017-06-14T13:00:10.045Z,29.96
2017-06-14T13:02:34.970Z,30.77
2017-06-14T13:04:51.423Z,30.81
2017-06-14T13:07:07.850Z,30.27
2017-06-14T13:09:32.745Z,29.8
2017-06-14T13:11:57.617Z,30.11
2017-06-14T13:14:08.275Z,30.81
2017-06-14T13:16:33.195Z,30.06
2017-06-14T13:18:49.606Z,29.98
2017-06-14T13:21:14.510Z,30.52
2017-06-14T13:23:30.864Z,30.44
2017-06-14T13:25:55.697Z,30.71
2017-06-14T13:28:20.553Z,30.55
2017-06-14T13:30:45.406Z,29.96
2017-06-14T13:33:10.271Z,30.86
2017-06-14T13:35:35.119Z,30.24
2017-06-14T13:37:59.967Z,29.61
2017-06-14T13:40:16.320Z,30.48
2017-06-14T13:42:41.158Z,31.13
2017-06-14T13:45:06.008Z,29.86
2017-06-14T13:47:30.846Z,29.81
2017-06-14T13:49:55.688Z,30.27
2017-06-14T13:52:20.534Z,30.49
2017-06-14T13:54:45.401Z,30.74
2017-06-14T13:57:10.237Z,29.69
2017-06-14T13:59:35.072Z,29.92
2017-06-14T14:01:59.940Z,30.26
2017-06-14T14:04:24.780Z,30.08
2017-06-14T14:06:49.609Z,30.59
2017-06-14T14:09:15.314Z,30.59
2017-06-14T14:11:31.682Z,30.26
2017-06-14T14:13:56.554Z,30.55
2017-06-14T14:16:21.399Z,30.71
2017-06-14T14:18:46.250Z,31.07
2017-06-14T14:21:02.669Z,29.99
2017-06-14T14:23:19.022Z,30.27
2017-06-14T14:25:21.092Z,30.51
2017-06-14T14:27:45.958Z,30.11
2017-06-14T14:30:10.840Z,30.44
2017-06-14T14:32:27.212Z,30.43
2017-06-14T14:34:52.084Z,30.71
2017-06-14T14:37:02.734Z,30.74
2017-06-14T14:39:27.630Z,30.88
2017-06-14T14:41:52.500Z,30.88
2017-06-14T14:44:17.317Z,31.13
2017-06-14T14:46:42.106Z,30.8
2017-06-14T14:49:07.000Z,30.65
2017-06-14T14:51:23.401Z,30.49
2017-06-14T14:53:48.267Z,29.96
2017-06-14T14:56:13.154Z,30.32
2017-06-14T14:58:38.023Z,30.46
2017-06-14T15:01:02.882Z,30.83
2017-06-14T15:03:27.762Z,30.23
2017-06-14T15:05:52.665Z,30.38
2017-06-14T15:08:17.462Z,30.29
2017-06-14T15:10:42.327Z,30.38
2017-06-14T15:13:07.197Z,30.59
2017-06-14T15:15:32.113Z,30.99
2017-06-14T15:17:56.998Z,30.99
2017-06-14T15:20:21.872Z,30.92
2017-06-14T15:22:38.260Z,30.24
2017-06-14T15:25:03.149Z,30.46
2017-06-14T15:27:27.997Z,30.56
2017-06-14T15:29:52.889Z,30.48
2017-06-14T15:32:09.263Z,30.48
2017-06-14T15:34:34.175Z,30.24
2017-06-14T15:36:58.995Z,29.77
2017-06-14T15:39:23.871Z,30.27
2017-06-14T15:41:48.723Z,30.02
2017-06-14T15:44:13.624Z,30.23
2017-06-14T15:46:38.526Z,29.71
2017-06-14T15:49:03.424Z,29.92
2017-06-14T15:51:28.320Z,29.96
2017-06-14T15:53:53.229Z,29.86
2017-06-14T15:56:18.142Z,30.1
2017-06-14T15:58:43.037Z,30.38
2017-06-14T16:01:07.973Z,30.49
2017-06-14T16:03:10.033Z,30.17
2017-06-14T16:05:35.006Z,30.4
2017-06-14T16:07:59.908Z,30.59
2017-06-14T16:10:16.936Z,30.54
2017-06-14T16:12:41.820Z,30.27
2017-06-14T16:14:43.511Z,30.46
2017-06-14T16:16:59.985Z,30.43
2017-06-14T16:19:24.890Z,29.81
2017-06-14T16:21:49.786Z,29.9
2017-06-14T16:24:14.684Z,30.16
2017-06-14T16:28:49.542Z,30.18
2017-06-14T16:31:15.694Z,29.98
2017-06-14T16:33:40.569Z,30.23
2017-06-14T16:36:06.402Z,29.87
2017-06-14T16:38:31.247Z,29.99
2017-06-14T16:40:56.101Z,29.86
2017-06-14T16:43:20.898Z,29.96
2017-06-14T16:45:45.698Z,29.5
2017-06-14T16:48:10.593Z,29.96
2017-06-14T16:50:35.497Z,30.38
2017-06-14T16:53:00.395Z,29.79
2017-06-14T16:55:16.696Z,29.42
2017-06-14T16:57:16.078Z,29.92
2017-06-14T16:59:41.002Z,29.84
2017-06-14T17:02:05.898Z,29.84
2017-06-14T17:04:22.305Z,29.74
2017-06-14T17:06:47.101Z,29.8
2017-06-14T17:09:11.902Z,29.62
2017-06-14T17:11:36.700Z,29.18
2017-06-14T17:13:28.493Z,29.57
2017-06-14T17:15:56.055Z,29.5
2017-06-14T17:18:21.047Z,29.39
2017-06-14T17:20:45.901Z,29.83
2017-06-14T17:23:11.825Z,29.53
2017-06-14T17:25:36.678Z,29.4
2017-06-14T17:28:01.671Z,29.15
2017-06-14T17:30:18.069Z,29.2
2017-06-14T17:32:42.990Z,29.32
2017-06-14T17:35:07.920Z,29.53
2017-06-14T17:37:32.678Z,29.21
2017-06-14T17:39:57.512Z,28.94
2017-06-14T17:42:22.342Z,29
2017-06-14T17:44:47.168Z,28.9
2017-06-14T17:47:12.970Z,29.18
2017-06-14T17:49:37.767Z,28.93
2017-06-14T17:52:02.568Z,29.28
2017-06-14T17:54:27.371Z,28.68
2017-06-14T17:56:53.194Z,28.96
2017-06-14T17:59:17.970Z,28.9
2017-06-14T18:01:43.823Z,28.89
2017-06-14T18:04:08.603Z,28.52
2017-06-14T18:06:34.384Z,28.53
2017-06-14T18:09:01.076Z,28.57
2017-06-14T18:11:25.848Z,28.64
2017-06-14T18:13:51.838Z,28.59
2017-06-14T18:16:18.527Z,28.6
2017-06-14T18:18:44.276Z,28.55
2017-06-14T18:21:08.948Z,28.59
2017-06-14T18:23:33.741Z,28.71
2017-06-14T18:26:05.312Z,28.92
2017-06-14T18:28:36.787Z,28.25
2017-06-14T18:30:12.666Z,28.12
2017-06-14T18:32:38.341Z,28.34
2017-06-14T18:35:04.044Z,28.33
2017-06-14T18:37:28.732Z,28.38
2017-06-14T18:39:39.359Z,28.28
2017-06-14T18:42:03.987Z,28.19
2017-06-14T18:44:28.720Z,28.25
2017-06-14T18:46:53.388Z,28.33
2017-06-14T18:49:20.039Z,28.19
2017-06-14T18:51:44.724Z,27.93
2017-06-14T18:54:09.334Z,28.03
2017-06-14T18:56:34.010Z,27.97
2017-06-14T18:58:58.714Z,27.88
2017-06-14T19:01:23.429Z,27.9
2017-06-14T19:03:48.006Z,27.93
2017-06-14T19:06:12.611Z,27.67
2017-06-14T19:08:20.296Z,27.76
2017-06-14T19:10:36.496Z,27.4
2017-06-14T19:13:01.087Z,27.6
2017-06-14T19:15:25.673Z,27.91
2017-06-14T19:17:50.383Z,27.53
2017-06-14T19:20:14.997Z,27.45
2017-06-14T19:22:39.569Z,27.47
2017-06-14T19:25:04.273Z,27.63
2017-06-14T19:27:28.966Z,27.57
2017-06-14T19:29:53.655Z,27.5
2017-06-14T19:32:03.729Z,27.63
2017-06-14T19:34:28.345Z,27.5
2017-06-14T19:36:52.936Z,27.45
2017-06-14T19:38:54.426Z,27
2017-06-14T19:41:10.643Z,27.2
2017-06-14T19:43:26.841Z,27.2
2017-06-14T19:45:51.436Z,27.16
2017-06-14T19:48:16.031Z,27.04
2017-06-14T19:50:32.228Z,26.97
2017-06-14T19:52:39.820Z,26.93
2017-06-14T19:54:33.600Z,26.86
2017-06-14T19:56:58.193Z,26.78
2017-06-14T19:59:22.780Z,26.68
2017-06-14T20:01:47.376Z,26.88
2017-06-14T20:03:49.368Z,26.81
2017-06-14T20:06:13.931Z,26.81
2017-06-14T20:08:38.529Z,26.48
2017-06-14T20:10:54.623Z,26.49
2017-06-14T20:13:19.108Z,26.48
2017-06-14T20:15:35.207Z,26.53
2017-06-14T20:17:59.701Z,26.37
2017-06-14T20:20:24.192Z,26.56
2017-06-14T20:22:48.789Z,26.46
2017-06-14T20:25:13.384Z,26.39
2017-06-14T20:27:29.476Z,26.3
2017-06-14T20:29:54.068Z,26.16
2017-06-14T20:32:18.661Z,26.18
2017-06-14T20:34:43.157Z,26.03
2017-06-14T20:37:07.646Z,26.01
2017-06-14T20:39:32.141Z,25.99
2017-06-14T20:41:48.229Z,25.77
2017-06-14T20:44:12.725Z,25.88
2017-06-14T20:46:28.820Z,26.04
2017-06-14T20:50:30.469Z,25.81
2017-06-14T20:52:54.898Z,25.86
2017-06-14T20:54:56.826Z,25.86
2017-06-14T20:57:21.352Z,25.85
2017-06-14T20:59:45.848Z,25.74
2017-06-14T21:02:10.333Z,25.61
2017-06-14T21:04:34.824Z,25.44
2017-06-14T21:06:59.217Z,25.51
2017-06-14T21:09:23.712Z,25.44
2017-06-14T21:11:48.199Z,25.4
2017-06-14T21:14:12.687Z,25.19
2017-06-14T21:16:37.176Z,25.24
2017-06-14T21:19:01.669Z,25.03
2017-06-14T21:21:26.059Z,25.01
2017-06-14T21:23:42.054Z,25.14
2017-06-14T21:25:58.048Z,24.79
2017-06-14T21:28:22.441Z,24.63
2017-06-14T21:30:46.826Z,24.74
2017-06-14T21:33:11.219Z,24.65
2017-06-14T21:35:35.603Z,24.79
2017-06-14T21:37:59.991Z,25.01
2017-06-14T21:40:24.383Z,24.88
2017-06-14T21:42:48.871Z,24.46
2017-06-14T21:45:04.866Z,24.46
2017-06-14T21:47:29.253Z,24.37
2017-06-14T21:49:53.644Z,24.29
2017-06-14T21:52:18.034Z,24.19
2017-06-14T21:54:42.426Z,24.34
2017-06-14T21:57:06.818Z,24.32
2017-06-14T21:59:31.204Z,24.18
2017-06-14T22:01:55.591Z,23.96
2017-06-14T22:04:19.983Z,23.94
2017-06-14T22:06:44.376Z,23.88
2017-06-14T22:09:08.758Z,23.73
2017-06-14T22:11:33.149Z,23.63
2017-06-14T22:13:49.040Z,23.63
2017-06-14T22:15:50.997Z,23.69
2017-06-14T22:18:15.385Z,23.56
2017-06-14T22:20:31.280Z,23.69
2017-06-14T22:22:55.564Z,23.7
2017-06-14T22:25:19.952Z,23.63
2017-06-14T22:27:44.343Z,23.48
2017-06-14T22:30:00.231Z,23.25
2017-06-14T22:32:24.517Z,23.28
2017-06-14T22:34:48.811Z,23.26
2017-06-14T22:36:56.204Z,23.49
2017-06-14T22:39:20.596Z,23.56
2017-06-14T22:41:44.873Z,23.7
2017-06-14T22:44:09.150Z,23.79
2017-06-14T22:46:33.446Z,23.66
2017-06-14T22:48:26.395Z,23.88
2017-06-14T22:50:50.684Z,23.81
2017-06-14T22:53:06.569Z,23.88
2017-06-14T22:55:22.460Z,23.89
2017-06-14T22:57:38.353Z,23.77
2017-06-14T23:00:02.641Z,23.69
2017-06-14T23:02:26.930Z,23.54
2017-06-14T23:04:51.216Z,23.81
2017-06-14T23:07:15.504Z,23.95
2017-06-14T23:09:39.789Z,23.95
2017-06-14T23:12:04.080Z,23.82
2017-06-14T23:14:28.469Z,23.95
2017-06-14T23:16:52.762Z,23.81
2017-06-14T23:18:54.191Z,23.89
2017-06-14T23:21:10.118Z,24
2017-06-14T23:23:34.482Z,23.85
2017-06-14T23:25:58.768Z,23.71
2017-06-14T23:28:14.656Z,23.76
2017-06-14T23:30:38.942Z,23.81
2017-06-14T23:32:54.833Z,24
2017-06-14T23:35:19.239Z,23.44
2017-06-14T23:37:26.715Z,23.63
2017-06-14T23:39:51.000Z,23.86
2017-06-14T23:42:06.889Z,23.77
2017-06-14T23:44:22.786Z,23.77
2017-06-14T23:46:47.072Z,23.73
2017-06-14T23:49:02.960Z,23.47
2017-06-14T23:51:27.244Z,23.39
2017-06-14T23:53:51.532Z,23.4
2017-06-14T23:56:15.818Z,23.14
2017-06-14T23:58:40.103Z,23.16
